sensor_id;sensor_type;location;lat;lon;timestamp;P1;durP1;ratioP1;P2;durP2;ratioP2
54157;SDS011;40065;49.894;10.358;2023-06-24T00:00:06;5.70;;;4.00;;
54157;SDS011;40065;49.894;10.358;2023-06-24T00:05:11;5.10;;;3.72;;
54157;SDS011;40065;49.894;10.358;2023-06-24T00:10:13;5.80;;;4.47;;
54157;SDS011;40065;49.894;10.358;2023-06-24T00:15:18;5.97;;;4.32;;
54157;SDS011;40065;49.894;10.358;2023-06-24T00:20:20;5.80;;;4.05;;
54157;SDS011;40065;49.894;10.358;2023-06-24T00:25:22;6.45;;;4.55;;
54157;SDS011;40065;49.894;10.358;2023-06-24T00:30:25;6.28;;;4.07;;
54157;SDS011;40065;49.894;10.358;2023-06-24T00:35:29;6.20;;;4.47;;
54157;SDS011;40065;49.894;10.358;2023-06-24T00:40:32;6.50;;;4.57;;
54157;SDS011;40065;49.894;10.358;2023-06-24T00:45:35;9.82;;;5.40;;
54157;SDS011;40065;49.894;10.358;2023-06-24T00:50:37;6.95;;;4.78;;
54157;SDS011;40065;49.894;10.358;2023-06-24T00:55:44;6.55;;;4.45;;
54157;SDS011;40065;49.894;10.358;2023-06-24T01:00:47;7.03;;;4.63;;
54157;SDS011;40065;49.894;10.358;2023-06-24T01:05:58;6.72;;;4.00;;
54157;SDS011;40065;49.894;10.358;2023-06-24T01:11:00;8.10;;;6.10;;
54157;SDS011;40065;49.894;10.358;2023-06-24T01:16:03;8.45;;;5.20;;
54157;SDS011;40065;49.894;10.358;2023-06-24T01:21:16;6.93;;;5.10;;
54157;SDS011;40065;49.894;10.358;2023-06-24T01:26:58;6.85;;;4.90;;
54157;SDS011;40065;49.894;10.358;2023-06-24T01:37:41;8.10;;;4.50;;
54157;SDS011;40065;49.894;10.358;2023-06-24T01:42:45;7.07;;;5.10;;
54157;SDS011;40065;49.894;10.358;2023-06-24T01:47:48;6.25;;;4.35;;
54157;SDS011;40065;49.894;10.358;2023-06-24T01:53:04;6.55;;;4.38;;
54157;SDS011;40065;49.894;10.358;2023-06-24T01:58:09;8.75;;;6.30;;
54157;SDS011;40065;49.894;10.358;2023-06-24T02:08:15;10.95;;;6.70;;
54157;SDS011;40065;49.894;10.358;2023-06-24T02:13:18;10.13;;;7.73;;
54157;SDS011;40065;49.894;10.358;2023-06-24T02:18:22;7.27;;;5.50;;
54157;SDS011;40065;49.894;10.358;2023-06-24T02:23:24;5.07;;;4.03;;
54157;SDS011;40065;49.894;10.358;2023-06-24T02:28:27;7.10;;;5.43;;
54157;SDS011;40065;49.894;10.358;2023-06-24T02:33:31;6.65;;;4.57;;
54157;SDS011;40065;49.894;10.358;2023-06-24T02:38:36;6.93;;;5.28;;
54157;SDS011;40065;49.894;10.358;2023-06-24T02:43:38;7.30;;;4.80;;
54157;SDS011;40065;49.894;10.358;2023-06-24T02:48:40;6.90;;;5.35;;
54157;SDS011;40065;49.894;10.358;2023-06-24T02:53:44;14.02;;;5.82;;
54157;SDS011;40065;49.894;10.358;2023-06-24T02:58:49;8.18;;;5.82;;
54157;SDS011;40065;49.894;10.358;2023-06-24T03:03:56;9.98;;;6.53;;
54157;SDS011;40065;49.894;10.358;2023-06-24T03:08:59;7.03;;;5.07;;
54157;SDS011;40065;49.894;10.358;2023-06-24T03:14:01;6.32;;;4.60;;
54157;SDS011;40065;49.894;10.358;2023-06-24T03:19:10;7.88;;;5.05;;
54157;SDS011;40065;49.894;10.358;2023-06-24T03:24:12;7.50;;;4.65;;
54157;SDS011;40065;49.894;10.358;2023-06-24T03:29:16;6.70;;;5.07;;
54157;SDS011;40065;49.894;10.358;2023-06-24T03:34:28;9.00;;;6.25;;
54157;SDS011;40065;49.894;10.358;2023-06-24T03:39:30;7.80;;;6.00;;
54157;SDS011;40065;49.894;10.358;2023-06-24T03:44:35;7.85;;;6.22;;
54157;SDS011;40065;49.894;10.358;2023-06-24T03:49:37;10.90;;;6.82;;
54157;SDS011;40065;49.894;10.358;2023-06-24T03:54:39;9.27;;;6.72;;
54157;SDS011;40065;49.894;10.358;2023-06-24T03:59:41;10.93;;;6.88;;
54157;SDS011;40065;49.894;10.358;2023-06-24T04:04:43;8.15;;;5.97;;
54157;SDS011;40065;49.894;10.358;2023-06-24T04:09:45;9.70;;;6.00;;
54157;SDS011;40065;49.894;10.358;2023-06-24T04:14:47;7.15;;;5.32;;
54157;SDS011;40065;49.894;10.358;2023-06-24T04:19:49;7.22;;;5.60;;
54157;SDS011;40065;49.894;10.358;2023-06-24T04:24:50;8.75;;;5.43;;
54157;SDS011;40065;49.894;10.358;2023-06-24T04:29:52;7.40;;;5.13;;
54157;SDS011;40065;49.894;10.358;2023-06-24T04:34:54;6.90;;;5.10;;
54157;SDS011;40065;49.894;10.358;2023-06-24T04:39:56;7.00;;;4.47;;
54157;SDS011;40065;49.894;10.358;2023-06-24T04:44:58;6.90;;;4.32;;
54157;SDS011;40065;49.894;10.358;2023-06-24T04:50:00;7.53;;;5.55;;
54157;SDS011;40065;49.894;10.358;2023-06-24T04:55:02;7.75;;;4.35;;
54157;SDS011;40065;49.894;10.358;2023-06-24T05:00:05;8.40;;;4.88;;
54157;SDS011;40065;49.894;10.358;2023-06-24T05:05:08;6.55;;;4.07;;
54157;SDS011;40065;49.894;10.358;2023-06-24T05:10:10;5.70;;;3.90;;
54157;SDS011;40065;49.894;10.358;2023-06-24T05:15:12;5.63;;;4.38;;
54157;SDS011;40065;49.894;10.358;2023-06-24T05:20:14;7.20;;;4.53;;
54157;SDS011;40065;49.894;10.358;2023-06-24T05:25:16;6.55;;;4.40;;
54157;SDS011;40065;49.894;10.358;2023-06-24T05:30:17;6.20;;;4.43;;
54157;SDS011;40065;49.894;10.358;2023-06-24T05:35:19;8.60;;;4.85;;
54157;SDS011;40065;49.894;10.358;2023-06-24T05:40:21;6.75;;;4.90;;
54157;SDS011;40065;49.894;10.358;2023-06-24T05:45:23;8.93;;;5.07;;
54157;SDS011;40065;49.894;10.358;2023-06-24T05:50:25;6.80;;;4.82;;
54157;SDS011;40065;49.894;10.358;2023-06-24T05:55:27;7.20;;;4.82;;
54157;SDS011;40065;49.894;10.358;2023-06-24T06:00:29;6.10;;;4.25;;
54157;SDS011;40065;49.894;10.358;2023-06-24T06:05:30;6.53;;;4.78;;
54157;SDS011;40065;49.894;10.358;2023-06-24T06:10:33;5.78;;;4.30;;
54157;SDS011;40065;49.894;10.358;2023-06-24T06:15:37;5.38;;;3.83;;
54157;SDS011;40065;49.894;10.358;2023-06-24T06:20:39;4.65;;;3.60;;
54157;SDS011;40065;49.894;10.358;2023-06-24T06:25:41;7.60;;;4.80;;
54157;SDS011;40065;49.894;10.358;2023-06-24T06:30:43;5.40;;;4.05;;
54157;SDS011;40065;49.894;10.358;2023-06-24T06:35:45;6.95;;;4.72;;
54157;SDS011;40065;49.894;10.358;2023-06-24T06:40:46;5.80;;;3.63;;
54157;SDS011;40065;49.894;10.358;2023-06-24T06:45:48;7.85;;;4.88;;
54157;SDS011;40065;49.894;10.358;2023-06-24T06:50:50;6.97;;;4.55;;
54157;SDS011;40065;49.894;10.358;2023-06-24T06:55:53;6.32;;;4.70;;
54157;SDS011;40065;49.894;10.358;2023-06-24T07:00:55;5.95;;;4.53;;
54157;SDS011;40065;49.894;10.358;2023-06-24T07:05:57;5.50;;;4.00;;
54157;SDS011;40065;49.894;10.358;2023-06-24T07:11:00;6.90;;;4.00;;
54157;SDS011;40065;49.894;10.358;2023-06-24T07:16:01;6.20;;;4.00;;
54157;SDS011;40065;49.894;10.358;2023-06-24T07:21:04;6.65;;;4.30;;
54157;SDS011;40065;49.894;10.358;2023-06-24T07:26:06;8.40;;;3.83;;
54157;SDS011;40065;49.894;10.358;2023-06-24T07:31:08;5.80;;;4.05;;
54157;SDS011;40065;49.894;10.358;2023-06-24T07:36:10;6.68;;;4.80;;
54157;SDS011;40065;49.894;10.358;2023-06-24T07:41:12;4.13;;;3.37;;
54157;SDS011;40065;49.894;10.358;2023-06-24T07:46:14;6.18;;;4.13;;
54157;SDS011;40065;49.894;10.358;2023-06-24T07:51:16;4.70;;;3.60;;
54157;SDS011;40065;49.894;10.358;2023-06-24T07:56:19;5.05;;;4.30;;
54157;SDS011;40065;49.894;10.358;2023-06-24T08:01:21;4.55;;;3.63;;
54157;SDS011;40065;49.894;10.358;2023-06-24T08:06:23;4.93;;;3.20;;
54157;SDS011;40065;49.894;10.358;2023-06-24T08:11:25;12.07;;;4.28;;
54157;SDS011;40065;49.894;10.358;2023-06-24T08:16:27;4.57;;;3.95;;
54157;SDS011;40065;49.894;10.358;2023-06-24T08:21:29;7.15;;;4.53;;
54157;SDS011;40065;49.894;10.358;2023-06-24T08:26:31;6.23;;;4.07;;
54157;SDS011;40065;49.894;10.358;2023-06-24T08:31:32;8.13;;;5.13;;
54157;SDS011;40065;49.894;10.358;2023-06-24T08:36:34;5.77;;;2.53;;
54157;SDS011;40065;49.894;10.358;2023-06-24T08:41:38;5.32;;;4.03;;
54157;SDS011;40065;49.894;10.358;2023-06-24T08:46:42;6.38;;;4.32;;
54157;SDS011;40065;49.894;10.358;2023-06-24T08:51:44;5.90;;;3.35;;
54157;SDS011;40065;49.894;10.358;2023-06-24T08:56:50;4.43;;;2.63;;
54157;SDS011;40065;49.894;10.358;2023-06-24T09:01:53;2.85;;;2.40;;
54157;SDS011;40065;49.894;10.358;2023-06-24T09:06:56;9.80;;;3.10;;
54157;SDS011;40065;49.894;10.358;2023-06-24T09:11:58;5.63;;;3.05;;
54157;SDS011;40065;49.894;10.358;2023-06-24T09:17:01;15.40;;;3.53;;
54157;SDS011;40065;49.894;10.358;2023-06-24T09:32:09;4.28;;;2.53;;
54157;SDS011;40065;49.894;10.358;2023-06-24T09:37:13;3.80;;;2.92;;
54157;SDS011;40065;49.894;10.358;2023-06-24T09:42:23;3.53;;;2.90;;
54157;SDS011;40065;49.894;10.358;2023-06-24T09:47:25;5.00;;;2.80;;
54157;SDS011;40065;49.894;10.358;2023-06-24T09:52:28;3.85;;;2.65;;
54157;SDS011;40065;49.894;10.358;2023-06-24T09:57:30;3.40;;;2.60;;
54157;SDS011;40065;49.894;10.358;2023-06-24T10:02:35;5.28;;;2.70;;
54157;SDS011;40065;49.894;10.358;2023-06-24T10:12:40;4.20;;;2.90;;
54157;SDS011;40065;49.894;10.358;2023-06-24T10:17:44;3.17;;;2.17;;
54157;SDS011;40065;49.894;10.358;2023-06-24T10:22:46;3.88;;;2.35;;
54157;SDS011;40065;49.894;10.358;2023-06-24T10:27:50;3.33;;;2.37;;
54157;SDS011;40065;49.894;10.358;2023-06-24T10:32:55;2.85;;;2.00;;
54157;SDS011;40065;49.894;10.358;2023-06-24T10:37:58;3.58;;;1.80;;
54157;SDS011;40065;49.894;10.358;2023-06-24T10:43:01;4.00;;;2.42;;
54157;SDS011;40065;49.894;10.358;2023-06-24T10:48:03;3.55;;;2.28;;
54157;SDS011;40065;49.894;10.358;2023-06-24T10:53:07;3.85;;;2.20;;
54157;SDS011;40065;49.894;10.358;2023-06-24T10:58:10;3.30;;;2.10;;
54157;SDS011;40065;49.894;10.358;2023-06-24T11:03:15;5.45;;;2.30;;
54157;SDS011;40065;49.894;10.358;2023-06-24T11:08:17;3.58;;;2.25;;
54157;SDS011;40065;49.894;10.358;2023-06-24T11:13:20;3.60;;;2.10;;
54157;SDS011;40065;49.894;10.358;2023-06-24T11:18:22;3.50;;;2.35;;
54157;SDS011;40065;49.894;10.358;2023-06-24T11:23:23;3.30;;;2.60;;
54157;SDS011;40065;49.894;10.358;2023-06-24T11:28:26;3.70;;;2.10;;
54157;SDS011;40065;49.894;10.358;2023-06-24T11:38:30;6.32;;;2.47;;
54157;SDS011;40065;49.894;10.358;2023-06-24T11:43:33;2.50;;;2.05;;
54157;SDS011;40065;49.894;10.358;2023-06-24T11:48:39;3.17;;;2.47;;
54157;SDS011;40065;49.894;10.358;2023-06-24T11:53:42;3.03;;;2.40;;
54157;SDS011;40065;49.894;10.358;2023-06-24T11:58:45;3.17;;;2.50;;
54157;SDS011;40065;49.894;10.358;2023-06-24T12:03:52;2.90;;;2.03;;
54157;SDS011;40065;49.894;10.358;2023-06-24T12:08:54;4.28;;;2.30;;
54157;SDS011;40065;49.894;10.358;2023-06-24T12:13:56;3.40;;;2.40;;
54157;SDS011;40065;49.894;10.358;2023-06-24T12:18:58;3.40;;;2.47;;
54157;SDS011;40065;49.894;10.358;2023-06-24T12:24:00;3.93;;;2.40;;
54157;SDS011;40065;49.894;10.358;2023-06-24T12:29:03;4.55;;;2.38;;
54157;SDS011;40065;49.894;10.358;2023-06-24T12:34:06;5.93;;;2.08;;
54157;SDS011;40065;49.894;10.358;2023-06-24T12:39:08;4.32;;;2.60;;
54157;SDS011;40065;49.894;10.358;2023-06-24T12:44:10;4.32;;;2.30;;
54157;SDS011;40065;49.894;10.358;2023-06-24T12:49:12;6.65;;;2.50;;
54157;SDS011;40065;49.894;10.358;2023-06-24T12:54:14;4.88;;;2.50;;
54157;SDS011;40065;49.894;10.358;2023-06-24T12:59:15;3.97;;;2.03;;
54157;SDS011;40065;49.894;10.358;2023-06-24T13:04:17;2.25;;;1.85;;
54157;SDS011;40065;49.894;10.358;2023-06-24T13:09:21;2.40;;;1.70;;
54157;SDS011;40065;49.894;10.358;2023-06-24T13:14:23;3.20;;;2.10;;
54157;SDS011;40065;49.894;10.358;2023-06-24T13:19:28;3.22;;;2.40;;
54157;SDS011;40065;49.894;10.358;2023-06-24T13:24:31;3.30;;;2.60;;
54157;SDS011;40065;49.894;10.358;2023-06-24T13:29:32;2.63;;;2.10;;
54157;SDS011;40065;49.894;10.358;2023-06-24T13:34:34;3.53;;;2.43;;
54157;SDS011;40065;49.894;10.358;2023-06-24T13:39:36;3.00;;;2.17;;
54157;SDS011;40065;49.894;10.358;2023-06-24T13:44:38;5.03;;;2.73;;
54157;SDS011;40065;49.894;10.358;2023-06-24T13:49:40;3.63;;;2.08;;
54157;SDS011;40065;49.894;10.358;2023-06-24T13:54:42;4.47;;;2.43;;
54157;SDS011;40065;49.894;10.358;2023-06-24T13:59:44;4.13;;;2.40;;
54157;SDS011;40065;49.894;10.358;2023-06-24T14:04:46;3.57;;;2.40;;
54157;SDS011;40065;49.894;10.358;2023-06-24T14:09:49;4.65;;;2.70;;
54157;SDS011;40065;49.894;10.358;2023-06-24T14:14:51;3.08;;;2.25;;
54157;SDS011;40065;49.894;10.358;2023-06-24T14:19:53;2.97;;;2.20;;
54157;SDS011;40065;49.894;10.358;2023-06-24T14:24:55;2.55;;;1.83;;
54157;SDS011;40065;49.894;10.358;2023-06-24T14:29:56;3.33;;;2.15;;
54157;SDS011;40065;49.894;10.358;2023-06-24T14:34:58;3.50;;;2.38;;
54157;SDS011;40065;49.894;10.358;2023-06-24T14:40:00;2.50;;;1.80;;
54157;SDS011;40065;49.894;10.358;2023-06-24T14:45:02;4.72;;;2.45;;
54157;SDS011;40065;49.894;10.358;2023-06-24T14:50:04;3.75;;;2.28;;
54157;SDS011;40065;49.894;10.358;2023-06-24T14:55:07;3.28;;;2.42;;
54157;SDS011;40065;49.894;10.358;2023-06-24T15:05:12;4.95;;;2.30;;
54157;SDS011;40065;49.894;10.358;2023-06-24T15:10:14;2.70;;;2.20;;
54157;SDS011;40065;49.894;10.358;2023-06-24T15:15:17;3.53;;;2.50;;
54157;SDS011;40065;49.894;10.358;2023-06-24T15:20:19;4.72;;;2.05;;
54157;SDS011;40065;49.894;10.358;2023-06-24T15:25:21;5.63;;;2.60;;
54157;SDS011;40065;49.894;10.358;2023-06-24T15:30:23;3.83;;;2.40;;
54157;SDS011;40065;49.894;10.358;2023-06-24T15:35:25;3.25;;;1.95;;
54157;SDS011;40065;49.894;10.358;2023-06-24T15:40:27;3.30;;;2.30;;
54157;SDS011;40065;49.894;10.358;2023-06-24T15:45:29;2.63;;;2.03;;
54157;SDS011;40065;49.894;10.358;2023-06-24T15:50:31;3.10;;;2.57;;
54157;SDS011;40065;49.894;10.358;2023-06-24T15:55:34;5.13;;;2.35;;
54157;SDS011;40065;49.894;10.358;2023-06-24T16:00:35;3.00;;;2.07;;
54157;SDS011;40065;49.894;10.358;2023-06-24T16:05:38;7.63;;;5.95;;
54157;SDS011;40065;49.894;10.358;2023-06-24T16:10:40;3.17;;;2.47;;
54157;SDS011;40065;49.894;10.358;2023-06-24T16:15:44;3.03;;;2.28;;
54157;SDS011;40065;49.894;10.358;2023-06-24T16:20:47;4.10;;;2.37;;
54157;SDS011;40065;49.894;10.358;2023-06-24T16:25:48;3.70;;;2.67;;
54157;SDS011;40065;49.894;10.358;2023-06-24T16:30:50;2.92;;;1.88;;
54157;SDS011;40065;49.894;10.358;2023-06-24T16:35:52;2.78;;;2.08;;
54157;SDS011;40065;49.894;10.358;2023-06-24T16:40:54;3.47;;;2.22;;
54157;SDS011;40065;49.894;10.358;2023-06-24T16:45:56;3.03;;;2.20;;
54157;SDS011;40065;49.894;10.358;2023-06-24T16:50:58;3.75;;;1.92;;
54157;SDS011;40065;49.894;10.358;2023-06-24T16:56:00;3.27;;;2.40;;
54157;SDS011;40065;49.894;10.358;2023-06-24T17:01:02;4.95;;;2.50;;
54157;SDS011;40065;49.894;10.358;2023-06-24T17:06:06;4.40;;;1.95;;
54157;SDS011;40065;49.894;10.358;2023-06-24T17:11:08;2.70;;;1.83;;
54157;SDS011;40065;49.894;10.358;2023-06-24T17:16:10;3.80;;;2.70;;
54157;SDS011;40065;49.894;10.358;2023-06-24T17:21:12;3.38;;;2.10;;
54157;SDS011;40065;49.894;10.358;2023-06-24T17:26:14;3.20;;;2.20;;
54157;SDS011;40065;49.894;10.358;2023-06-24T17:31:16;4.30;;;2.70;;
54157;SDS011;40065;49.894;10.358;2023-06-24T17:36:19;3.03;;;2.15;;
54157;SDS011;40065;49.894;10.358;2023-06-24T17:41:21;4.82;;;2.67;;
54157;SDS011;40065;49.894;10.358;2023-06-24T17:46:24;3.22;;;2.33;;
54157;SDS011;40065;49.894;10.358;2023-06-24T17:51:28;3.33;;;2.20;;
54157;SDS011;40065;49.894;10.358;2023-06-24T17:56:30;5.85;;;2.97;;
54157;SDS011;40065;49.894;10.358;2023-06-24T18:01:32;4.15;;;2.30;;
54157;SDS011;40065;49.894;10.358;2023-06-24T18:06:35;3.17;;;2.30;;
54157;SDS011;40065;49.894;10.358;2023-06-24T18:11:37;2.95;;;2.00;;
54157;SDS011;40065;49.894;10.358;2023-06-24T18:16:39;4.25;;;2.33;;
54157;SDS011;40065;49.894;10.358;2023-06-24T18:21:42;3.95;;;2.10;;
54157;SDS011;40065;49.894;10.358;2023-06-24T18:26:44;4.20;;;2.20;;
54157;SDS011;40065;49.894;10.358;2023-06-24T18:31:46;2.72;;;1.98;;
54157;SDS011;40065;49.894;10.358;2023-06-24T18:36:48;3.40;;;2.10;;
54157;SDS011;40065;49.894;10.358;2023-06-24T18:41:50;3.13;;;2.15;;
54157;SDS011;40065;49.894;10.358;2023-06-24T18:46:51;4.32;;;2.10;;
54157;SDS011;40065;49.894;10.358;2023-06-24T18:51:53;2.65;;;1.88;;
54157;SDS011;40065;49.894;10.358;2023-06-24T18:56:55;3.20;;;1.67;;
54157;SDS011;40065;49.894;10.358;2023-06-24T19:01:57;3.38;;;1.85;;
54157;SDS011;40065;49.894;10.358;2023-06-24T19:06:59;3.10;;;1.80;;
54157;SDS011;40065;49.894;10.358;2023-06-24T19:12:01;2.78;;;2.08;;
54157;SDS011;40065;49.894;10.358;2023-06-24T19:17:03;3.75;;;2.03;;
54157;SDS011;40065;49.894;10.358;2023-06-24T19:22:05;3.53;;;2.00;;
54157;SDS011;40065;49.894;10.358;2023-06-24T19:27:09;4.03;;;2.28;;
54157;SDS011;40065;49.894;10.358;2023-06-24T19:32:11;2.80;;;2.10;;
54157;SDS011;40065;49.894;10.358;2023-06-24T19:37:15;2.42;;;1.83;;
54157;SDS011;40065;49.894;10.358;2023-06-24T19:42:17;2.72;;;2.10;;
54157;SDS011;40065;49.894;10.358;2023-06-24T19:47:19;3.38;;;2.25;;
54157;SDS011;40065;49.894;10.358;2023-06-24T19:52:21;3.55;;;2.40;;
54157;SDS011;40065;49.894;10.358;2023-06-24T19:57:23;3.72;;;2.35;;
54157;SDS011;40065;49.894;10.358;2023-06-24T20:02:25;3.22;;;2.67;;
54157;SDS011;40065;49.894;10.358;2023-06-24T20:07:27;5.22;;;2.80;;
54157;SDS011;40065;49.894;10.358;2023-06-24T20:12:29;4.65;;;2.67;;
54157;SDS011;40065;49.894;10.358;2023-06-24T20:17:31;5.05;;;2.80;;
54157;SDS011;40065;49.894;10.358;2023-06-24T20:22:33;4.00;;;2.88;;
54157;SDS011;40065;49.894;10.358;2023-06-24T20:27:35;5.35;;;2.70;;
54157;SDS011;40065;49.894;10.358;2023-06-24T20:32:36;4.75;;;2.83;;
54157;SDS011;40065;49.894;10.358;2023-06-24T20:37:38;3.60;;;2.50;;
54157;SDS011;40065;49.894;10.358;2023-06-24T20:42:40;4.30;;;2.50;;
54157;SDS011;40065;49.894;10.358;2023-06-24T20:47:42;5.55;;;2.75;;
54157;SDS011;40065;49.894;10.358;2023-06-24T20:52:44;4.03;;;2.47;;
54157;SDS011;40065;49.894;10.358;2023-06-24T20:57:46;3.30;;;2.30;;
54157;SDS011;40065;49.894;10.358;2023-06-24T21:02:48;3.65;;;2.50;;
54157;SDS011;40065;49.894;10.358;2023-06-24T21:07:50;4.70;;;2.95;;
54157;SDS011;40065;49.894;10.358;2023-06-24T21:12:52;4.78;;;2.97;;
54157;SDS011;40065;49.894;10.358;2023-06-24T21:17:59;3.20;;;2.47;;
54157;SDS011;40065;49.894;10.358;2023-06-24T21:23:01;4.72;;;3.05;;
54157;SDS011;40065;49.894;10.358;2023-06-24T21:28:03;4.20;;;2.80;;
54157;SDS011;40065;49.894;10.358;2023-06-24T21:33:06;4.35;;;2.70;;
54157;SDS011;40065;49.894;10.358;2023-06-24T21:38:07;4.53;;;3.40;;
54157;SDS011;40065;49.894;10.358;2023-06-24T21:43:09;4.60;;;3.17;;
54157;SDS011;40065;49.894;10.358;2023-06-24T21:48:11;4.97;;;3.13;;
54157;SDS011;40065;49.894;10.358;2023-06-24T21:53:13;4.85;;;3.33;;
54157;SDS011;40065;49.894;10.358;2023-06-24T21:58:15;5.05;;;3.58;;
54157;SDS011;40065;49.894;10.358;2023-06-24T22:03:17;8.52;;;3.10;;
54157;SDS011;40065;49.894;10.358;2023-06-24T22:08:19;4.22;;;2.90;;
54157;SDS011;40065;49.894;10.358;2023-06-24T22:13:23;4.22;;;2.78;;
54157;SDS011;40065;49.894;10.358;2023-06-24T22:18:25;3.00;;;2.25;;
54157;SDS011;40065;49.894;10.358;2023-06-24T22:23:27;4.15;;;2.78;;
54157;SDS011;40065;49.894;10.358;2023-06-24T22:28:29;3.30;;;2.50;;
54157;SDS011;40065;49.894;10.358;2023-06-24T22:33:31;4.15;;;2.90;;
54157;SDS011;40065;49.894;10.358;2023-06-24T22:38:32;5.35;;;3.00;;
54157;SDS011;40065;49.894;10.358;2023-06-24T22:43:34;6.10;;;4.20;;
54157;SDS011;40065;49.894;10.358;2023-06-24T22:48:37;6.22;;;4.70;;
54157;SDS011;40065;49.894;10.358;2023-06-24T22:53:38;4.68;;;3.30;;
54157;SDS011;40065;49.894;10.358;2023-06-24T22:58:40;4.05;;;2.90;;
54157;SDS011;40065;49.894;10.358;2023-06-24T23:03:42;3.95;;;3.03;;
54157;SDS011;40065;49.894;10.358;2023-06-24T23:08:44;4.88;;;2.92;;
54157;SDS011;40065;49.894;10.358;2023-06-24T23:13:46;3.90;;;2.90;;
54157;SDS011;40065;49.894;10.358;2023-06-24T23:18:49;4.00;;;2.63;;
54157;SDS011;40065;49.894;10.358;2023-06-24T23:23:51;3.45;;;2.38;;
54157;SDS011;40065;49.894;10.358;2023-06-24T23:28:53;4.20;;;2.70;;
54157;SDS011;40065;49.894;10.358;2023-06-24T23:34:07;4.25;;;2.42;;
54157;SDS011;40065;49.894;10.358;2023-06-24T23:39:09;5.57;;;2.85;;
54157;SDS011;40065;49.894;10.358;2023-06-24T23:44:11;3.92;;;2.85;;
54157;SDS011;40065;49.894;10.358;2023-06-24T23:49:13;5.18;;;2.80;;
54157;SDS011;40065;49.894;10.358;2023-06-24T23:54:16;4.57;;;3.00;;
54157;SDS011;40065;49.894;10.358;2023-06-24T23:59:19;4.72;;;2.53;;
